sensor_id;sensor_type;location;lat;lon;timestamp;temperature;humidity
4596;DHT22;2310;49.978;8.742;2023-06-24T00:03:52;19.60;99.90
4596;DHT22;2310;49.978;8.742;2023-06-24T00:07:54;19.40;99.90
4596;DHT22;2310;49.978;8.742;2023-06-24T00:11:58;19.40;99.90
4596;DHT22;2310;49.978;8.742;2023-06-24T00:16:02;19.40;99.90
4596;DHT22;2310;49.978;8.742;2023-06-24T00:20:04;19.50;99.90
4596;DHT22;2310;49.978;8.742;2023-06-24T00:24:08;19.50;99.90
4596;DHT22;2310;49.978;8.742;2023-06-24T00:28:10;19.20;99.90
4596;DHT22;2310;49.978;8.742;2023-06-24T00:32:12;19.10;99.90
4596;DHT22;2310;49.978;8.742;2023-06-24T00:36:14;19.10;99.90
4596;DHT22;2310;49.978;8.742;2023-06-24T00:40:15;19.10;99.90
4596;DHT22;2310;49.978;8.742;2023-06-24T00:44:18;19.10;99.90
4596;DHT22;2310;49.978;8.742;2023-06-24T00:48:19;19.10;99.90
4596;DHT22;2310;49.978;8.742;2023-06-24T00:52:22;19.30;99.90
4596;DHT22;2310;49.978;8.742;2023-06-24T00:56:25;19.30;99.90
4596;DHT22;2310;49.978;8.742;2023-06-24T01:00:28;19.10;99.90
4596;DHT22;2310;49.978;8.742;2023-06-24T01:04:33;19.10;99.90
4596;DHT22;2310;49.978;8.742;2023-06-24T01:08:35;19.00;99.90
4596;DHT22;2310;49.978;8.742;2023-06-24T01:12:38;19.00;99.90
4596;DHT22;2310;49.978;8.742;2023-06-24T01:16:43;19.00;99.90
4596;DHT22;2310;49.978;8.742;2023-06-24T01:20:52;18.90;99.90
4596;DHT22;2310;49.978;8.742;2023-06-24T01:34:12;18.80;99.90
4596;DHT22;2310;49.978;8.742;2023-06-24T01:38:18;18.70;99.90
4596;DHT22;2310;49.978;8.742;2023-06-24T01:42:20;18.60;99.90
4596;DHT22;2310;49.978;8.742;2023-06-24T01:46:28;18.50;99.90
4596;DHT22;2310;49.978;8.742;2023-06-24T01:50:31;18.50;99.90
4596;DHT22;2310;49.978;8.742;2023-06-24T01:54:36;18.40;99.90
4596;DHT22;2310;49.978;8.742;2023-06-24T01:58:39;18.30;99.90
4596;DHT22;2310;49.978;8.742;2023-06-24T02:02:43;18.20;99.90
4596;DHT22;2310;49.978;8.742;2023-06-24T02:06:47;18.30;99.90
4596;DHT22;2310;49.978;8.742;2023-06-24T02:10:51;18.20;99.90
4596;DHT22;2310;49.978;8.742;2023-06-24T02:14:55;18.10;99.90
4596;DHT22;2310;49.978;8.742;2023-06-24T02:18:57;18.00;99.90
4596;DHT22;2310;49.978;8.742;2023-06-24T02:23:01;18.00;99.90
4596;DHT22;2310;49.978;8.742;2023-06-24T02:27:05;18.00;99.90
4596;DHT22;2310;49.978;8.742;2023-06-24T02:31:09;18.10;99.90
4596;DHT22;2310;49.978;8.742;2023-06-24T02:35:12;17.90;99.90
4596;DHT22;2310;49.978;8.742;2023-06-24T02:39:14;17.70;99.90
4596;DHT22;2310;49.978;8.742;2023-06-24T02:43:16;17.80;99.90
4596;DHT22;2310;49.978;8.742;2023-06-24T02:47:19;17.60;99.90
4596;DHT22;2310;49.978;8.742;2023-06-24T02:51:21;17.50;99.90
4596;DHT22;2310;49.978;8.742;2023-06-24T02:55:23;17.60;99.90
4596;DHT22;2310;49.978;8.742;2023-06-24T02:59:25;17.60;99.90
4596;DHT22;2310;49.978;8.742;2023-06-24T03:03:27;17.70;99.90
4596;DHT22;2310;49.978;8.742;2023-06-24T03:07:29;17.80;99.90
4596;DHT22;2310;49.978;8.742;2023-06-24T03:11:31;17.80;99.90
4596;DHT22;2310;49.978;8.742;2023-06-24T03:15:34;17.70;99.90
4596;DHT22;2310;49.978;8.742;2023-06-24T03:19:37;17.60;99.90
4596;DHT22;2310;49.978;8.742;2023-06-24T03:23:38;17.70;99.90
4596;DHT22;2310;49.978;8.742;2023-06-24T03:27:41;17.70;99.90
4596;DHT22;2310;49.978;8.742;2023-06-24T03:31:42;17.70;99.90
4596;DHT22;2310;49.978;8.742;2023-06-24T03:35:45;17.60;99.90
4596;DHT22;2310;49.978;8.742;2023-06-24T03:39:46;17.40;99.90
4596;DHT22;2310;49.978;8.742;2023-06-24T03:43:48;17.40;99.90
4596;DHT22;2310;49.978;8.742;2023-06-24T03:47:49;17.50;99.90
4596;DHT22;2310;49.978;8.742;2023-06-24T03:51:51;17.50;99.90
4596;DHT22;2310;49.978;8.742;2023-06-24T03:55:52;17.60;99.90
4596;DHT22;2310;49.978;8.742;2023-06-24T03:59:53;17.60;99.90
4596;DHT22;2310;49.978;8.742;2023-06-24T04:03:55;17.80;99.90
4596;DHT22;2310;49.978;8.742;2023-06-24T04:07:56;17.80;99.90
4596;DHT22;2310;49.978;8.742;2023-06-24T04:11:58;17.90;99.90
4596;DHT22;2310;49.978;8.742;2023-06-24T04:15:59;17.80;99.90
4596;DHT22;2310;49.978;8.742;2023-06-24T04:20:00;18.00;99.90
4596;DHT22;2310;49.978;8.742;2023-06-24T04:24:04;18.10;99.90
4596;DHT22;2310;49.978;8.742;2023-06-24T04:28:06;18.30;99.90
4596;DHT22;2310;49.978;8.742;2023-06-24T04:32:07;18.40;99.90
4596;DHT22;2310;49.978;8.742;2023-06-24T04:36:09;18.50;99.90
4596;DHT22;2310;49.978;8.742;2023-06-24T04:40:10;18.80;99.90
4596;DHT22;2310;49.978;8.742;2023-06-24T04:44:12;19.10;99.90
4596;DHT22;2310;49.978;8.742;2023-06-24T04:48:13;19.50;99.90
4596;DHT22;2310;49.978;8.742;2023-06-24T04:52:14;19.80;99.90
4596;DHT22;2310;49.978;8.742;2023-06-24T04:56:16;20.20;99.90
4596;DHT22;2310;49.978;8.742;2023-06-24T05:00:17;20.60;99.90
4596;DHT22;2310;49.978;8.742;2023-06-24T05:04:19;20.80;99.90
4596;DHT22;2310;49.978;8.742;2023-06-24T05:08:21;21.00;99.90
4596;DHT22;2310;49.978;8.742;2023-06-24T05:12:22;21.10;99.90
4596;DHT22;2310;49.978;8.742;2023-06-24T05:16:24;21.30;99.90
4596;DHT22;2310;49.978;8.742;2023-06-24T05:20:25;21.80;99.90
4596;DHT22;2310;49.978;8.742;2023-06-24T05:24:27;22.20;99.90
4596;DHT22;2310;49.978;8.742;2023-06-24T05:28:28;22.50;99.90
4596;DHT22;2310;49.978;8.742;2023-06-24T05:32:29;22.60;99.90
4596;DHT22;2310;49.978;8.742;2023-06-24T05:36:31;22.70;99.90
4596;DHT22;2310;49.978;8.742;2023-06-24T05:40:32;23.20;99.90
4596;DHT22;2310;49.978;8.742;2023-06-24T05:44:34;22.70;99.90
4596;DHT22;2310;49.978;8.742;2023-06-24T05:48:35;23.10;99.90
4596;DHT22;2310;49.978;8.742;2023-06-24T05:52:36;22.80;99.90
4596;DHT22;2310;49.978;8.742;2023-06-24T05:56:38;23.00;99.90
4596;DHT22;2310;49.978;8.742;2023-06-24T06:00:41;22.90;99.90
4596;DHT22;2310;49.978;8.742;2023-06-24T06:04:43;22.70;99.90
4596;DHT22;2310;49.978;8.742;2023-06-24T06:08:44;22.80;99.90
4596;DHT22;2310;49.978;8.742;2023-06-24T06:12:45;22.70;99.90
4596;DHT22;2310;49.978;8.742;2023-06-24T06:16:47;23.10;99.90
4596;DHT22;2310;49.978;8.742;2023-06-24T06:20:48;22.90;99.90
4596;DHT22;2310;49.978;8.742;2023-06-24T06:24:49;23.20;99.90
4596;DHT22;2310;49.978;8.742;2023-06-24T06:28:51;23.10;99.90
4596;DHT22;2310;49.978;8.742;2023-06-24T06:32:54;23.00;99.90
4596;DHT22;2310;49.978;8.742;2023-06-24T06:36:55;23.30;99.90
4596;DHT22;2310;49.978;8.742;2023-06-24T06:40:57;23.10;99.90
4596;DHT22;2310;49.978;8.742;2023-06-24T06:44:58;23.10;99.90
4596;DHT22;2310;49.978;8.742;2023-06-24T06:48:59;23.40;99.90
4596;DHT22;2310;49.978;8.742;2023-06-24T06:53:01;22.90;99.90
4596;DHT22;2310;49.978;8.742;2023-06-24T06:57:03;22.60;99.90
4596;DHT22;2310;49.978;8.742;2023-06-24T07:01:07;22.70;99.90
4596;DHT22;2310;49.978;8.742;2023-06-24T07:05:08;23.20;99.90
4596;DHT22;2310;49.978;8.742;2023-06-24T07:09:11;23.30;99.90
4596;DHT22;2310;49.978;8.742;2023-06-24T07:13:12;23.40;99.90
4596;DHT22;2310;49.978;8.742;2023-06-24T07:17:13;23.60;99.90
4596;DHT22;2310;49.978;8.742;2023-06-24T07:21:15;23.50;99.90
4596;DHT22;2310;49.978;8.742;2023-06-24T07:25:17;23.80;99.90
4596;DHT22;2310;49.978;8.742;2023-06-24T07:29:18;23.50;99.90
4596;DHT22;2310;49.978;8.742;2023-06-24T07:33:19;23.80;99.90
4596;DHT22;2310;49.978;8.742;2023-06-24T07:37:21;23.90;99.90
4596;DHT22;2310;49.978;8.742;2023-06-24T07:41:24;24.00;99.90
4596;DHT22;2310;49.978;8.742;2023-06-24T07:45:25;24.30;99.90
4596;DHT22;2310;49.978;8.742;2023-06-24T07:49:27;24.50;99.90
4596;DHT22;2310;49.978;8.742;2023-06-24T07:53:28;24.30;97.30
4596;DHT22;2310;49.978;8.742;2023-06-24T07:57:30;24.40;97.30
4596;DHT22;2310;49.978;8.742;2023-06-24T08:01:31;24.80;97.40
4596;DHT22;2310;49.978;8.742;2023-06-24T08:05:32;25.00;95.20
4596;DHT22;2310;49.978;8.742;2023-06-24T08:09:34;25.10;97.00
4596;DHT22;2310;49.978;8.742;2023-06-24T08:13:36;25.20;96.10
4596;DHT22;2310;49.978;8.742;2023-06-24T08:17:37;25.50;90.40
4596;DHT22;2310;49.978;8.742;2023-06-24T08:21:38;25.70;88.80
4596;DHT22;2310;49.978;8.742;2023-06-24T08:25:40;26.00;91.00
4596;DHT22;2310;49.978;8.742;2023-06-24T08:29:41;26.40;82.50
4596;DHT22;2310;49.978;8.742;2023-06-24T08:33:44;26.10;82.00
4596;DHT22;2310;49.978;8.742;2023-06-24T08:37:48;26.90;78.00
4596;DHT22;2310;49.978;8.742;2023-06-24T08:41:50;26.60;73.50
4596;DHT22;2310;49.978;8.742;2023-06-24T08:45:52;27.50;68.90
4596;DHT22;2310;49.978;8.742;2023-06-24T08:50:04;28.10;62.50
4596;DHT22;2310;49.978;8.742;2023-06-24T08:54:07;28.50;59.60
4596;DHT22;2310;49.978;8.742;2023-06-24T08:58:10;29.10;57.20
4596;DHT22;2310;49.978;8.742;2023-06-24T09:02:11;29.80;56.10
4596;DHT22;2310;49.978;8.742;2023-06-24T09:06:14;29.70;56.50
4596;DHT22;2310;49.978;8.742;2023-06-24T09:10:34;30.00;54.00
4596;DHT22;2310;49.978;8.742;2023-06-24T09:14:32;30.30;52.90
4596;DHT22;2310;49.978;8.742;2023-06-24T09:18:34;30.80;51.90
4596;DHT22;2310;49.978;8.742;2023-06-24T09:22:39;31.30;50.20
4596;DHT22;2310;49.978;8.742;2023-06-24T09:26:42;31.60;49.20
4596;DHT22;2310;49.978;8.742;2023-06-24T09:30:45;31.80;47.10
4596;DHT22;2310;49.978;8.742;2023-06-24T09:34:47;31.80;47.10
4596;DHT22;2310;49.978;8.742;2023-06-24T09:38:49;32.00;48.20
4596;DHT22;2310;49.978;8.742;2023-06-24T09:42:56;31.40;47.10
4596;DHT22;2310;49.978;8.742;2023-06-24T09:46:57;31.00;48.40
4596;DHT22;2310;49.978;8.742;2023-06-24T09:51:01;31.70;48.00
4596;DHT22;2310;49.978;8.742;2023-06-24T09:55:03;31.40;47.10
4596;DHT22;2310;49.978;8.742;2023-06-24T09:59:07;31.80;47.00
4596;DHT22;2310;49.978;8.742;2023-06-24T10:03:09;32.30;46.00
4596;DHT22;2310;49.978;8.742;2023-06-24T10:07:12;32.80;45.60
4596;DHT22;2310;49.978;8.742;2023-06-24T10:11:13;33.30;42.60
4596;DHT22;2310;49.978;8.742;2023-06-24T10:15:16;33.60;42.30
4596;DHT22;2310;49.978;8.742;2023-06-24T10:19:21;33.30;42.10
4596;DHT22;2310;49.978;8.742;2023-06-24T10:27:54;33.00;41.20
4596;DHT22;2310;49.978;8.742;2023-06-24T10:31:56;31.90;41.80
4596;DHT22;2310;49.978;8.742;2023-06-24T10:36:00;30.70;43.40
4596;DHT22;2310;49.978;8.742;2023-06-24T10:40:02;30.10;45.30
4596;DHT22;2310;49.978;8.742;2023-06-24T10:44:14;30.00;45.20
4596;DHT22;2310;49.978;8.742;2023-06-24T10:48:13;29.70;45.40
4596;DHT22;2310;49.978;8.742;2023-06-24T10:52:18;29.00;46.90
4596;DHT22;2310;49.978;8.742;2023-06-24T10:56:20;29.70;47.10
4596;DHT22;2310;49.978;8.742;2023-06-24T11:00:21;29.90;43.90
4596;DHT22;2310;49.978;8.742;2023-06-24T11:04:24;30.90;44.60
4596;DHT22;2310;49.978;8.742;2023-06-24T11:08:25;30.60;44.90
4596;DHT22;2310;49.978;8.742;2023-06-24T11:12:30;31.40;45.10
4596;DHT22;2310;49.978;8.742;2023-06-24T11:16:31;32.00;41.20
4596;DHT22;2310;49.978;8.742;2023-06-24T11:20:32;32.30;39.70
4596;DHT22;2310;49.978;8.742;2023-06-24T11:24:34;32.30;40.00
4596;DHT22;2310;49.978;8.742;2023-06-24T11:28:37;31.90;40.40
4596;DHT22;2310;49.978;8.742;2023-06-24T11:32:40;32.00;40.90
4596;DHT22;2310;49.978;8.742;2023-06-24T11:36:42;32.20;41.70
4596;DHT22;2310;49.978;8.742;2023-06-24T11:40:47;31.60;40.50
4596;DHT22;2310;49.978;8.742;2023-06-24T11:44:49;30.60;42.40
4596;DHT22;2310;49.978;8.742;2023-06-24T11:48:50;30.20;43.30
4596;DHT22;2310;49.978;8.742;2023-06-24T11:52:54;31.10;43.00
4596;DHT22;2310;49.978;8.742;2023-06-24T11:56:55;31.20;42.20
4596;DHT22;2310;49.978;8.742;2023-06-24T12:00:56;31.40;42.40
4596;DHT22;2310;49.978;8.742;2023-06-24T12:04:58;32.40;39.30
4596;DHT22;2310;49.978;8.742;2023-06-24T12:08:59;32.70;38.00
4596;DHT22;2310;49.978;8.742;2023-06-24T12:13:02;32.70;38.30
4596;DHT22;2310;49.978;8.742;2023-06-24T12:17:04;33.10;38.10
4596;DHT22;2310;49.978;8.742;2023-06-24T12:21:05;33.70;37.50
4596;DHT22;2310;49.978;8.742;2023-06-24T12:25:07;33.20;36.50
4596;DHT22;2310;49.978;8.742;2023-06-24T12:29:09;33.40;38.30
4596;DHT22;2310;49.978;8.742;2023-06-24T12:33:10;33.70;35.80
4596;DHT22;2310;49.978;8.742;2023-06-24T12:37:12;33.30;36.60
4596;DHT22;2310;49.978;8.742;2023-06-24T12:41:13;33.00;37.20
4596;DHT22;2310;49.978;8.742;2023-06-24T12:45:15;32.80;37.30
4596;DHT22;2310;49.978;8.742;2023-06-24T12:49:16;32.70;37.80
4596;DHT22;2310;49.978;8.742;2023-06-24T12:53:18;32.20;37.20
4596;DHT22;2310;49.978;8.742;2023-06-24T12:57:19;31.80;38.00
4596;DHT22;2310;49.978;8.742;2023-06-24T13:01:21;31.80;39.10
4596;DHT22;2310;49.978;8.742;2023-06-24T13:05:22;32.10;38.60
4596;DHT22;2310;49.978;8.742;2023-06-24T13:09:24;31.60;38.60
4596;DHT22;2310;49.978;8.742;2023-06-24T13:13:25;31.40;38.80
4596;DHT22;2310;49.978;8.742;2023-06-24T13:17:26;30.80;38.80
4596;DHT22;2310;49.978;8.742;2023-06-24T13:21:28;31.80;37.90
4596;DHT22;2310;49.978;8.742;2023-06-24T13:25:29;32.60;37.30
4596;DHT22;2310;49.978;8.742;2023-06-24T13:29:30;32.80;36.40
4596;DHT22;2310;49.978;8.742;2023-06-24T13:33:32;33.20;35.10
4596;DHT22;2310;49.978;8.742;2023-06-24T13:37:36;33.70;35.20
4596;DHT22;2310;49.978;8.742;2023-06-24T13:41:37;33.80;36.00
4596;DHT22;2310;49.978;8.742;2023-06-24T13:45:39;33.50;35.20
4596;DHT22;2310;49.978;8.742;2023-06-24T13:49:40;33.40;35.20
4596;DHT22;2310;49.978;8.742;2023-06-24T13:53:41;32.70;36.00
4596;DHT22;2310;49.978;8.742;2023-06-24T13:57:43;31.30;37.30
4596;DHT22;2310;49.978;8.742;2023-06-24T14:01:44;31.10;37.90
4596;DHT22;2310;49.978;8.742;2023-06-24T14:05:45;30.40;38.70
4596;DHT22;2310;49.978;8.742;2023-06-24T14:09:47;30.20;39.90
4596;DHT22;2310;49.978;8.742;2023-06-24T14:13:48;30.10;39.60
4596;DHT22;2310;49.978;8.742;2023-06-24T14:17:49;30.00;39.60
4596;DHT22;2310;49.978;8.742;2023-06-24T14:21:51;30.00;40.20
4596;DHT22;2310;49.978;8.742;2023-06-24T14:25:52;30.20;39.20
4596;DHT22;2310;49.978;8.742;2023-06-24T14:29:53;30.50;39.80
4596;DHT22;2310;49.978;8.742;2023-06-24T14:33:55;30.70;39.10
4596;DHT22;2310;49.978;8.742;2023-06-24T14:37:56;30.70;38.90
4596;DHT22;2310;49.978;8.742;2023-06-24T14:41:58;31.40;38.50
4596;DHT22;2310;49.978;8.742;2023-06-24T14:45:59;31.90;38.20
4596;DHT22;2310;49.978;8.742;2023-06-24T14:50:01;32.70;36.50
4596;DHT22;2310;49.978;8.742;2023-06-24T14:54:02;32.50;36.50
4596;DHT22;2310;49.978;8.742;2023-06-24T14:58:04;31.80;37.20
4596;DHT22;2310;49.978;8.742;2023-06-24T15:02:05;32.50;36.50
4596;DHT22;2310;49.978;8.742;2023-06-24T15:06:08;31.80;36.50
4596;DHT22;2310;49.978;8.742;2023-06-24T15:10:10;31.40;37.90
4596;DHT22;2310;49.978;8.742;2023-06-24T15:14:11;31.40;38.10
4596;DHT22;2310;49.978;8.742;2023-06-24T15:18:12;31.50;38.40
4596;DHT22;2310;49.978;8.742;2023-06-24T15:22:15;31.70;37.80
4596;DHT22;2310;49.978;8.742;2023-06-24T15:26:17;31.80;37.60
4596;DHT22;2310;49.978;8.742;2023-06-24T15:30:19;31.50;36.80
4596;DHT22;2310;49.978;8.742;2023-06-24T15:34:20;31.20;37.70
4596;DHT22;2310;49.978;8.742;2023-06-24T15:38:21;31.50;37.30
4596;DHT22;2310;49.978;8.742;2023-06-24T15:42:23;31.60;36.70
4596;DHT22;2310;49.978;8.742;2023-06-24T15:46:24;31.50;36.00
4596;DHT22;2310;49.978;8.742;2023-06-24T15:50:25;31.70;36.90
4596;DHT22;2310;49.978;8.742;2023-06-24T15:54:27;31.60;36.20
4596;DHT22;2310;49.978;8.742;2023-06-24T15:58:28;31.70;37.20
4596;DHT22;2310;49.978;8.742;2023-06-24T16:02:29;31.50;38.60
4596;DHT22;2310;49.978;8.742;2023-06-24T16:06:31;31.10;38.90
4596;DHT22;2310;49.978;8.742;2023-06-24T16:10:32;30.70;38.70
4596;DHT22;2310;49.978;8.742;2023-06-24T16:14:34;30.90;38.60
4596;DHT22;2310;49.978;8.742;2023-06-24T16:18:35;30.80;38.60
4596;DHT22;2310;49.978;8.742;2023-06-24T16:22:36;30.90;39.50
4596;DHT22;2310;49.978;8.742;2023-06-24T16:26:38;30.90;38.90
4596;DHT22;2310;49.978;8.742;2023-06-24T16:30:41;30.80;39.00
4596;DHT22;2310;49.978;8.742;2023-06-24T16:34:42;30.90;39.90
4596;DHT22;2310;49.978;8.742;2023-06-24T16:38:44;30.70;39.90
4596;DHT22;2310;49.978;8.742;2023-06-24T16:42:45;30.70;39.50
4596;DHT22;2310;49.978;8.742;2023-06-24T16:46:47;30.70;39.80
4596;DHT22;2310;49.978;8.742;2023-06-24T16:50:48;30.80;39.20
4596;DHT22;2310;49.978;8.742;2023-06-24T16:54:50;30.90;39.00
4596;DHT22;2310;49.978;8.742;2023-06-24T16:58:51;30.70;38.60
4596;DHT22;2310;49.978;8.742;2023-06-24T17:02:52;30.60;38.30
4596;DHT22;2310;49.978;8.742;2023-06-24T17:06:54;30.60;38.40
4596;DHT22;2310;49.978;8.742;2023-06-24T17:10:55;30.40;38.50
4596;DHT22;2310;49.978;8.742;2023-06-24T17:14:56;30.40;38.30
4596;DHT22;2310;49.978;8.742;2023-06-24T17:18:58;30.40;37.30
4596;DHT22;2310;49.978;8.742;2023-06-24T17:22:59;30.30;37.60
4596;DHT22;2310;49.978;8.742;2023-06-24T17:27:00;30.30;38.10
4596;DHT22;2310;49.978;8.742;2023-06-24T17:31:02;30.30;38.20
4596;DHT22;2310;49.978;8.742;2023-06-24T17:35:04;30.00;38.00
4596;DHT22;2310;49.978;8.742;2023-06-24T17:39:05;29.90;38.50
4596;DHT22;2310;49.978;8.742;2023-06-24T17:43:07;29.80;38.70
4596;DHT22;2310;49.978;8.742;2023-06-24T17:47:08;29.80;39.00
4596;DHT22;2310;49.978;8.742;2023-06-24T17:51:10;29.80;38.70
4596;DHT22;2310;49.978;8.742;2023-06-24T17:55:11;29.80;40.00
4596;DHT22;2310;49.978;8.742;2023-06-24T17:59:12;29.80;40.90
4596;DHT22;2310;49.978;8.742;2023-06-24T18:03:14;29.60;41.00
4596;DHT22;2310;49.978;8.742;2023-06-24T18:07:16;29.50;41.20
4596;DHT22;2310;49.978;8.742;2023-06-24T18:11:22;29.60;42.00
4596;DHT22;2310;49.978;8.742;2023-06-24T18:15:23;29.50;42.60
4596;DHT22;2310;49.978;8.742;2023-06-24T18:19:24;29.40;42.80
4596;DHT22;2310;49.978;8.742;2023-06-24T18:23:26;29.40;43.10
4596;DHT22;2310;49.978;8.742;2023-06-24T18:27:27;29.60;43.50
4596;DHT22;2310;49.978;8.742;2023-06-24T18:31:28;29.50;42.80
4596;DHT22;2310;49.978;8.742;2023-06-24T18:35:30;29.40;43.50
4596;DHT22;2310;49.978;8.742;2023-06-24T18:39:31;29.40;43.30
4596;DHT22;2310;49.978;8.742;2023-06-24T18:43:33;29.30;43.40
4596;DHT22;2310;49.978;8.742;2023-06-24T18:47:35;29.10;44.50
4596;DHT22;2310;49.978;8.742;2023-06-24T18:51:37;29.00;44.20
4596;DHT22;2310;49.978;8.742;2023-06-24T18:55:40;28.90;45.50
4596;DHT22;2310;49.978;8.742;2023-06-24T18:59:42;28.90;45.50
4596;DHT22;2310;49.978;8.742;2023-06-24T19:03:44;29.00;45.20
4596;DHT22;2310;49.978;8.742;2023-06-24T19:07:46;29.00;45.50
4596;DHT22;2310;49.978;8.742;2023-06-24T19:11:47;29.00;46.20
4596;DHT22;2310;49.978;8.742;2023-06-24T19:15:48;29.00;46.80
4596;DHT22;2310;49.978;8.742;2023-06-24T19:19:50;29.00;48.30
4596;DHT22;2310;49.978;8.742;2023-06-24T19:23:51;28.80;50.00
4596;DHT22;2310;49.978;8.742;2023-06-24T19:27:53;28.30;51.20
4596;DHT22;2310;49.978;8.742;2023-06-24T19:31:54;28.00;51.80
4596;DHT22;2310;49.978;8.742;2023-06-24T19:35:56;27.70;53.30
4596;DHT22;2310;49.978;8.742;2023-06-24T19:39:57;27.40;54.70
4596;DHT22;2310;49.978;8.742;2023-06-24T19:44:04;27.10;55.90
4596;DHT22;2310;49.978;8.742;2023-06-24T19:48:08;26.90;57.00
4596;DHT22;2310;49.978;8.742;2023-06-24T19:52:09;26.70;58.20
4596;DHT22;2310;49.978;8.742;2023-06-24T19:56:11;26.60;59.30
4596;DHT22;2310;49.978;8.742;2023-06-24T20:00:12;26.60;57.50
4596;DHT22;2310;49.978;8.742;2023-06-24T20:04:15;26.50;58.10
4596;DHT22;2310;49.978;8.742;2023-06-24T20:08:16;26.60;59.10
4596;DHT22;2310;49.978;8.742;2023-06-24T20:12:17;26.50;61.00
4596;DHT22;2310;49.978;8.742;2023-06-24T20:16:18;26.00;62.00
4596;DHT22;2310;49.978;8.742;2023-06-24T20:20:20;25.90;65.40
4596;DHT22;2310;49.978;8.742;2023-06-24T20:24:21;25.50;70.40
4596;DHT22;2310;49.978;8.742;2023-06-24T20:28:23;25.40;77.80
4596;DHT22;2310;49.978;8.742;2023-06-24T20:32:24;25.30;73.30
4596;DHT22;2310;49.978;8.742;2023-06-24T20:36:25;25.20;76.10
4596;DHT22;2310;49.978;8.742;2023-06-24T20:40:27;25.30;77.30
4596;DHT22;2310;49.978;8.742;2023-06-24T20:44:28;25.30;80.10
4596;DHT22;2310;49.978;8.742;2023-06-24T20:48:29;25.20;83.00
4596;DHT22;2310;49.978;8.742;2023-06-24T20:52:31;25.10;76.40
4596;DHT22;2310;49.978;8.742;2023-06-24T20:56:32;24.90;76.10
4596;DHT22;2310;49.978;8.742;2023-06-24T21:00:34;25.00;76.50
4596;DHT22;2310;49.978;8.742;2023-06-24T21:04:39;25.00;75.50
4596;DHT22;2310;49.978;8.742;2023-06-24T21:08:40;24.90;77.20
4596;DHT22;2310;49.978;8.742;2023-06-24T21:12:42;24.90;79.20
4596;DHT22;2310;49.978;8.742;2023-06-24T21:16:46;25.00;77.40
4596;DHT22;2310;49.978;8.742;2023-06-24T21:20:48;25.00;79.10
4596;DHT22;2310;49.978;8.742;2023-06-24T21:24:50;25.00;80.60
4596;DHT22;2310;49.978;8.742;2023-06-24T21:28:51;25.00;87.70
4596;DHT22;2310;49.978;8.742;2023-06-24T21:32:53;24.90;92.20
4596;DHT22;2310;49.978;8.742;2023-06-24T21:36:54;24.90;91.60
4596;DHT22;2310;49.978;8.742;2023-06-24T21:40:55;24.90;92.30
4596;DHT22;2310;49.978;8.742;2023-06-24T21:44:57;24.80;92.10
4596;DHT22;2310;49.978;8.742;2023-06-24T21:48:58;24.60;95.30
4596;DHT22;2310;49.978;8.742;2023-06-24T21:53:00;24.50;96.20
4596;DHT22;2310;49.978;8.742;2023-06-24T21:57:02;24.50;95.70
4596;DHT22;2310;49.978;8.742;2023-06-24T22:01:03;24.50;93.80
4596;DHT22;2310;49.978;8.742;2023-06-24T22:05:05;24.40;94.80
4596;DHT22;2310;49.978;8.742;2023-06-24T22:09:08;24.40;93.30
4596;DHT22;2310;49.978;8.742;2023-06-24T22:13:09;24.20;92.70
4596;DHT22;2310;49.978;8.742;2023-06-24T22:17:10;24.20;93.90
4596;DHT22;2310;49.978;8.742;2023-06-24T22:21:12;24.20;92.90
4596;DHT22;2310;49.978;8.742;2023-06-24T22:25:13;24.40;90.50
4596;DHT22;2310;49.978;8.742;2023-06-24T22:29:14;24.40;92.10
4596;DHT22;2310;49.978;8.742;2023-06-24T22:33:16;24.10;96.10
4596;DHT22;2310;49.978;8.742;2023-06-24T22:37:18;23.90;97.40
4596;DHT22;2310;49.978;8.742;2023-06-24T22:41:19;23.90;97.40
4596;DHT22;2310;49.978;8.742;2023-06-24T22:45:21;24.10;95.60
4596;DHT22;2310;49.978;8.742;2023-06-24T22:49:22;23.80;96.40
4596;DHT22;2310;49.978;8.742;2023-06-24T22:53:24;23.60;97.80
4596;DHT22;2310;49.978;8.742;2023-06-24T22:57:25;23.50;98.90
4596;DHT22;2310;49.978;8.742;2023-06-24T23:01:26;23.40;99.90
4596;DHT22;2310;49.978;8.742;2023-06-24T23:05:28;23.30;99.90
4596;DHT22;2310;49.978;8.742;2023-06-24T23:09:30;23.30;99.90
4596;DHT22;2310;49.978;8.742;2023-06-24T23:13:32;23.10;99.90
4596;DHT22;2310;49.978;8.742;2023-06-24T23:17:34;22.90;99.90
4596;DHT22;2310;49.978;8.742;2023-06-24T23:21:36;22.70;99.90
4596;DHT22;2310;49.978;8.742;2023-06-24T23:25:41;22.70;99.90
4596;DHT22;2310;49.978;8.742;2023-06-24T23:29:45;22.60;99.90
4596;DHT22;2310;49.978;8.742;2023-06-24T23:33:48;22.60;99.90
4596;DHT22;2310;49.978;8.742;2023-06-24T23:37:51;22.40;99.90
4596;DHT22;2310;49.978;8.742;2023-06-24T23:41:52;22.20;99.90
4596;DHT22;2310;49.978;8.742;2023-06-24T23:45:54;22.00;99.90
4596;DHT22;2310;49.978;8.742;2023-06-24T23:49:56;22.10;99.90
4596;DHT22;2310;49.978;8.742;2023-06-24T23:53:57;22.10;99.90
4596;DHT22;2310;49.978;8.742;2023-06-24T23:57:59;22.10;99.90
